Main page
METAR-TAF:

METAR-TAF

Airports :

Bahawalpur Airport

Bahawalpur, Pakistan

latitude: 29-20-53N, longitude: 71-43-04E, elevation: 119 m

METAR: missing

Time: 07:12 (02:12 UTC)

Forecast

The report was made 4 hours and 27 minutes ago, at 21:45 UTC
Forecast valid from 16 at 00 UTC to 16 at 18 UTC
Wind 5 kt from the Northeast
Visibility: 2500 m
smoke
Probability 30% :
Temporary
from 16 at 00 UTC to 16 at 04 UTC
Wind kt from the North
Visibility: 0500 m
fog
Temporary
from 16 at 04 UTC to 16 at 08 UTC
Wind 5 kt from the Northeast
Visibility: 1500 m
smoke

TAF: OPBW 152145Z 1600/1618 05005KT 2500 FU NSC TN13/1601Z TX26/1610Z PROB30 TEMPO 1600/1604 00000KT 0500 FG NSC TEMPO 1604/1608 05005KT 1500 FU NSC

Weather observations and forecasts of more than 4000 airports (METAR and TAF reports).

The available stations are represented by yellow and red dots on the map.

Hover mouse over dot to see the name of the station.

Then click to see weather observations and forecasts.

To change the map : click on the green buttons with a black cross to zoom in, on the green button with a dash to zoom out, or on the green arrows for adjacent maps.


METAR-TAF: